createdAt,value
2023-01-30T00:03:41.935Z,91.41
2023-01-30T00:08:41.815Z,91.33
2023-01-30T00:13:42.813Z,91.26
2023-01-30T00:18:44.035Z,91.14
2023-01-30T00:23:50.948Z,91.08
2023-01-30T00:28:49.790Z,91.10
2023-01-30T00:33:49.287Z,91.16
2023-01-30T00:38:51.606Z,91.09
2023-01-30T00:44:08.751Z,91.08
2023-01-30T00:49:09.693Z,91.03
2023-01-30T00:54:10.282Z,91.08
2023-01-30T00:59:10.277Z,91.28
2023-01-30T01:04:12.550Z,91.22
2023-01-30T01:09:12.971Z,91.19
2023-01-30T01:14:13.164Z,91.23
2023-01-30T01:19:13.872Z,91.24
2023-01-30T01:24:17.292Z,91.04
2023-01-30T01:29:18.719Z,90.96
2023-01-30T01:34:18.220Z,90.91
2023-01-30T01:39:17.540Z,90.63
2023-01-30T01:44:18.471Z,90.57
2023-01-30T01:49:25.646Z,90.39
2023-01-30T01:54:35.458Z,90.24
2023-01-30T01:59:43.461Z,90.01
2023-01-30T02:05:05.736Z,89.91
2023-01-30T02:10:06.617Z,89.80
2023-01-30T02:15:08.320Z,89.52
2023-01-30T02:20:18.934Z,89.48
2023-01-30T02:26:06.879Z,89.14
2023-01-30T02:31:29.274Z,88.99
2023-01-30T02:36:48.016Z,88.99
2023-01-30T02:42:02.011Z,88.91
2023-01-30T02:47:09.631Z,88.40
2023-01-30T02:52:13.176Z,87.89
2023-01-30T02:57:26.569Z,87.69
2023-01-30T03:03:08.699Z,87.44
2023-01-30T03:08:27.388Z,86.79
2023-01-30T03:13:43.974Z,86.65
2023-01-30T03:18:46.676Z,86.18
2023-01-30T03:23:51.020Z,86.22
2023-01-30T03:28:53.580Z,86.19
2023-01-30T03:33:52.756Z,85.90
2023-01-30T03:38:52.784Z,85.74
2023-01-30T03:43:52.956Z,85.70
2023-01-30T03:48:51.765Z,85.82
2023-01-30T03:53:51.598Z,86.15
2023-01-30T03:58:51.129Z,86.55
2023-01-30T04:03:53.741Z,86.93
2023-01-30T04:08:55.549Z,87.28
2023-01-30T04:14:16.106Z,87.57
2023-01-30T04:19:37.635Z,87.57
2023-01-30T04:24:37.013Z,87.51
2023-01-30T04:29:36.269Z,87.66
2023-01-30T04:34:36.277Z,87.82
2023-01-30T04:39:35.976Z,87.69
2023-01-30T04:44:35.643Z,87.43
2023-01-30T04:49:45.603Z,87.25
2023-01-30T04:54:45.641Z,86.99
2023-01-30T04:59:47.272Z,86.77
2023-01-30T05:04:46.389Z,86.88
2023-01-30T05:09:45.098Z,87.04
2023-01-30T05:14:46.731Z,87.04
2023-01-30T05:19:45.885Z,86.80
2023-01-30T05:24:45.921Z,86.90
2023-01-30T05:29:45.273Z,86.94
2023-01-30T05:34:45.101Z,87.03
2023-01-30T05:39:46.383Z,86.99
2023-01-30T05:44:46.288Z,87.01
2023-01-30T05:49:46.260Z,86.76
2023-01-30T05:54:48.095Z,86.44
2023-01-30T05:59:47.862Z,86.46
2023-01-30T06:04:47.964Z,86.34
2023-01-30T06:09:47.319Z,86.02
2023-01-30T06:14:46.677Z,85.75
2023-01-30T06:19:46.518Z,85.58
2023-01-30T06:24:45.615Z,85.29
2023-01-30T06:29:45.639Z,85.12
2023-01-30T06:34:47.452Z,84.85
2023-01-30T06:39:50.155Z,84.82
2023-01-30T06:44:50.154Z,84.39
2023-01-30T06:49:50.665Z,84.10
2023-01-30T06:54:49.971Z,83.57
2023-01-30T06:59:50.031Z,83.09
2023-01-30T07:04:50.054Z,82.89
2023-01-30T07:10:05.821Z,83.01
2023-01-30T07:15:07.237Z,82.55
2023-01-30T07:20:11.398Z,82.02
2023-01-30T07:25:12.629Z,81.99
2023-01-30T07:30:15.424Z,81.91
2023-01-30T07:35:15.230Z,82.70
2023-01-30T07:40:18.388Z,83.78
2023-01-30T07:45:19.751Z,84.60
2023-01-30T07:50:24.708Z,85.08
2023-01-30T07:55:24.549Z,85.69
2023-01-30T08:00:26.378Z,86.52
2023-01-30T08:05:26.078Z,87.09
2023-01-30T08:10:25.874Z,87.65
2023-01-30T08:15:25.594Z,88.45
2023-01-30T08:20:25.112Z,88.86
2023-01-30T08:25:25.433Z,88.79
2023-01-30T08:30:26.380Z,89.16
2023-01-30T08:35:25.881Z,89.53
2023-01-30T08:40:25.213Z,89.56
2023-01-30T08:45:27.629Z,90.02
2023-01-30T08:50:27.050Z,90.03
2023-01-30T08:55:26.525Z,89.95
2023-01-30T09:00:30.578Z,90.16
2023-01-30T09:05:31.415Z,90.36
2023-01-30T09:10:31.759Z,90.55
2023-01-30T09:15:32.104Z,91.03
2023-01-30T09:20:34.805Z,91.18
2023-01-30T09:25:34.228Z,90.96
2023-01-30T09:30:34.627Z,90.97
2023-01-30T09:35:35.518Z,90.98
2023-01-30T09:40:47.638Z,91.08
2023-01-30T09:46:02.269Z,90.78
2023-01-30T09:51:19.528Z,90.56
2023-01-30T09:56:18.710Z,90.41
2023-01-30T10:01:28.792Z,90.61
2023-01-30T10:06:28.543Z,90.86
2023-01-30T10:11:45.285Z,90.98
2023-01-30T10:17:01.480Z,91.02
2023-01-30T10:22:17.959Z,91.15
2023-01-30T10:27:22.188Z,91.45
2023-01-30T10:32:31.887Z,91.72
2023-01-30T10:37:41.485Z,91.76
2023-01-30T10:42:50.842Z,91.90
2023-01-30T10:48:03.087Z,92.11
2023-01-30T10:53:17.418Z,92.06
2023-01-30T10:58:29.823Z,92.24
2023-01-30T11:03:45.671Z,92.19
2023-01-30T11:08:48.155Z,92.47
2023-01-30T11:13:46.792Z,92.44
2023-01-30T11:24:21.876Z,92.46
2023-01-30T11:29:31.844Z,92.41
2023-01-30T11:34:31.083Z,92.40
2023-01-30T11:39:35.002Z,92.33
2023-01-30T11:44:38.091Z,92.28
2023-01-30T11:49:47.663Z,92.10
2023-01-30T11:55:08.993Z,91.89
2023-01-30T12:00:20.339Z,91.73
2023-01-30T12:05:33.238Z,91.67
2023-01-30T12:10:42.040Z,91.63
2023-01-30T12:15:45.693Z,91.58
2023-01-30T12:20:58.100Z,91.65
2023-01-30T12:26:08.568Z,91.59
2023-01-30T12:31:17.955Z,91.60
2023-01-30T12:36:32.256Z,91.78
2023-01-30T12:41:48.965Z,92.03
2023-01-30T12:47:07.024Z,91.97
2023-01-30T12:52:48.051Z,91.98
2023-01-30T12:57:55.270Z,92.04
2023-01-30T13:03:21.145Z,91.86
2023-01-30T13:08:43.308Z,91.82
2023-01-30T13:13:54.286Z,91.76
2023-01-30T13:19:01.876Z,91.67
2023-01-30T13:24:21.826Z,91.72
2023-01-30T13:29:31.751Z,91.80
2023-01-30T13:34:36.402Z,91.92
2023-01-30T13:39:42.556Z,92.01
2023-01-30T13:44:46.547Z,92.36
2023-01-30T13:49:59.396Z,92.20
2023-01-30T13:55:11.495Z,92.35
2023-01-30T14:00:34.054Z,92.47
2023-01-30T14:06:21.150Z,92.42
2023-01-30T14:11:44.773Z,92.47
2023-01-30T14:16:55.031Z,92.58
2023-01-30T14:22:05.441Z,92.50
2023-01-30T14:27:32.267Z,92.38
2023-01-30T14:32:59.129Z,92.30
2023-01-30T14:38:19.261Z,92.30
2023-01-30T14:44:04.367Z,92.31
2023-01-30T14:49:19.790Z,92.30
2023-01-30T14:54:41.265Z,92.24
2023-01-30T14:59:59.341Z,92.15
2023-01-30T15:05:15.970Z,92.02
2023-01-30T15:10:33.141Z,91.99
2023-01-30T15:15:42.609Z,91.97
2023-01-30T15:21:01.921Z,92.05
2023-01-30T15:26:25.249Z,91.97
2023-01-30T15:31:26.663Z,92.02
2023-01-30T15:36:34.172Z,92.00
2023-01-30T15:41:41.804Z,92.01
2023-01-30T15:46:57.125Z,92.00
2023-01-30T15:52:03.476Z,91.92
2023-01-30T15:57:03.365Z,91.96
2023-01-30T16:02:20.770Z,91.94
2023-01-30T16:07:27.479Z,91.98
2023-01-30T16:12:32.139Z,91.90
2023-01-30T16:17:35.758Z,91.73
2023-01-30T16:22:38.494Z,91.69
2023-01-30T16:27:41.406Z,91.64
2023-01-30T16:32:41.882Z,91.51
2023-01-30T16:37:41.858Z,91.45
2023-01-30T16:42:41.373Z,91.31
2023-01-30T16:47:42.274Z,91.25
2023-01-30T16:52:52.113Z,91.12
2023-01-30T16:58:03.162Z,90.96
2023-01-30T17:03:06.987Z,90.76
2023-01-30T17:08:06.861Z,90.59
2023-01-30T17:13:28.017Z,90.59
2023-01-30T17:18:26.997Z,90.61
2023-01-30T17:23:27.990Z,90.68
2023-01-30T17:28:28.147Z,90.75
2023-01-30T17:33:28.215Z,90.77
2023-01-30T17:38:31.688Z,90.84
2023-01-30T17:43:33.397Z,90.84
2023-01-30T17:48:34.623Z,90.90
2023-01-30T17:53:33.980Z,90.88
2023-01-30T17:58:34.760Z,90.76
2023-01-30T18:03:34.007Z,90.76
2023-01-30T18:08:33.311Z,90.75
2023-01-30T18:13:34.559Z,90.80
2023-01-30T18:18:35.346Z,90.81
2023-01-30T18:23:33.883Z,90.63
2023-01-30T18:28:33.262Z,90.59
2023-01-30T18:33:32.967Z,90.45
2023-01-30T18:38:32.666Z,90.44
2023-01-30T18:43:32.535Z,90.34
2023-01-30T18:48:33.728Z,90.13
2023-01-30T18:53:35.005Z,89.96
2023-01-30T18:58:36.139Z,89.88
2023-01-30T19:03:36.066Z,89.76
2023-01-30T19:08:36.336Z,89.64
2023-01-30T19:13:36.745Z,89.64
2023-01-30T19:18:36.876Z,89.64
2023-01-30T19:23:36.302Z,89.47
2023-01-30T19:29:15.703Z,89.53
2023-01-30T19:34:30.822Z,89.68
2023-01-30T19:39:33.769Z,89.77
2023-01-30T19:44:33.267Z,89.87
2023-01-30T19:49:35.794Z,89.97
2023-01-30T19:54:37.219Z,90.06
2023-01-30T19:59:38.893Z,90.10
2023-01-30T20:04:40.750Z,90.14
2023-01-30T20:09:40.358Z,90.12
2023-01-30T20:14:45.360Z,90.23
2023-01-30T20:19:44.717Z,90.31
2023-01-30T20:24:49.374Z,90.34
2023-01-30T20:30:00.838Z,90.50
2023-01-30T20:35:00.709Z,90.57
2023-01-30T20:40:00.241Z,90.55
2023-01-30T20:45:00.741Z,90.51
2023-01-30T20:50:00.166Z,90.45
2023-01-30T20:55:02.636Z,90.34
2023-01-30T21:00:02.200Z,90.23
2023-01-30T21:05:01.837Z,90.14
2023-01-30T21:10:01.176Z,90.11
2023-01-30T21:15:00.781Z,90.00
2023-01-30T21:20:00.436Z,90.01
2023-01-30T21:24:59.731Z,89.97
2023-01-30T21:30:00.614Z,89.96
2023-01-30T21:35:01.657Z,89.98
2023-01-30T21:40:19.464Z,90.02
2023-01-30T21:45:21.194Z,89.95
2023-01-30T21:50:21.709Z,89.98
2023-01-30T21:55:22.001Z,89.89
2023-01-30T22:00:22.670Z,89.87
2023-01-30T22:05:22.062Z,89.91
2023-01-30T22:10:22.447Z,89.94
2023-01-30T22:15:22.839Z,89.92
2023-01-30T22:20:22.742Z,89.91
2023-01-30T22:25:22.521Z,89.96
2023-01-30T22:30:22.684Z,89.96
2023-01-30T22:35:22.116Z,90.01
2023-01-30T22:40:22.619Z,90.00
2023-01-30T22:45:36.265Z,89.95
2023-01-30T22:50:42.409Z,89.80
2023-01-30T22:55:52.287Z,89.75
2023-01-30T23:01:10.279Z,89.63
2023-01-30T23:06:12.837Z,89.69
2023-01-30T23:11:18.492Z,89.75
2023-01-30T23:16:22.232Z,89.71
2023-01-30T23:21:22.424Z,89.67
2023-01-30T23:26:23.037Z,89.64
2023-01-30T23:31:25.571Z,89.59
2023-01-30T23:36:25.520Z,89.48
2023-01-30T23:41:28.565Z,89.41
2023-01-30T23:46:31.143Z,89.50
2023-01-30T23:51:33.285Z,89.62
2023-01-30T23:56:37.545Z,89.65
